createdAt,value
2018-02-14T00:02:19.218Z,57.60
2018-02-14T00:04:46.733Z,57.60
2018-02-14T00:07:15.005Z,58.00
2018-02-14T00:09:43.332Z,58.30
2018-02-14T00:12:10.835Z,57.70
2018-02-14T00:14:39.164Z,58.60
2018-02-14T00:17:06.677Z,58.20
2018-02-14T00:19:34.986Z,58.20
2018-02-14T00:22:02.506Z,58.30
2018-02-14T00:24:30.839Z,57.90
2018-02-14T00:26:58.336Z,57.90
2018-02-14T00:29:25.860Z,57.80
2018-02-14T00:31:53.407Z,57.70
2018-02-14T00:34:20.929Z,57.80
2018-02-14T00:36:49.219Z,57.30
2018-02-14T00:39:16.734Z,57.30
2018-02-14T00:41:44.272Z,57.30
2018-02-14T00:44:11.783Z,57.60
2018-02-14T00:46:40.061Z,58.20
2018-02-14T00:49:07.597Z,58.10
2018-02-14T00:51:35.896Z,58.70
2018-02-14T00:54:03.417Z,58.70
2018-02-14T00:56:30.921Z,58.70
2018-02-14T00:58:58.543Z,58.70
2018-02-14T01:01:26.822Z,59.50
2018-02-14T01:03:54.349Z,59.00
2018-02-14T01:06:21.929Z,59.20
2018-02-14T01:08:49.429Z,59.20
2018-02-14T01:11:16.958Z,59.40
2018-02-14T01:13:45.234Z,59.60
2018-02-14T01:16:13.521Z,59.70
2018-02-14T01:18:47.396Z,60.00
2018-02-14T01:21:14.914Z,60.10
2018-02-14T01:23:42.416Z,60.10
2018-02-14T01:26:09.952Z,59.90
2018-02-14T01:28:37.489Z,60.10
2018-02-14T01:31:04.999Z,59.90
2018-02-14T01:33:33.272Z,59.90
2018-02-14T01:36:00.772Z,59.90
2018-02-14T01:38:28.294Z,60.60
2018-02-14T01:40:55.823Z,60.00
2018-02-14T01:43:23.343Z,59.80
2018-02-14T01:45:50.836Z,59.80
2018-02-14T01:48:18.361Z,59.50
2018-02-14T01:50:45.919Z,59.60
2018-02-14T01:53:13.448Z,59.70
2018-02-14T01:55:41.753Z,60.00
2018-02-14T01:58:09.272Z,60.00
2018-02-14T02:00:37.574Z,60.30
2018-02-14T02:03:05.087Z,60.30
2018-02-14T02:05:32.630Z,60.90
2018-02-14T02:08:00.135Z,60.80
2018-02-14T02:10:27.664Z,60.60
2018-02-14T02:12:55.187Z,60.50
2018-02-14T02:15:22.702Z,60.50
2018-02-14T02:17:50.249Z,60.60
2018-02-14T02:20:18.519Z,60.80
2018-02-14T02:22:46.811Z,62.00
2018-02-14T02:25:15.108Z,61.80
2018-02-14T02:27:42.611Z,61.70
2018-02-14T02:30:10.144Z,61.60
2018-02-14T02:32:37.649Z,62.70
2018-02-14T02:35:05.949Z,62.60
2018-02-14T02:37:33.462Z,62.60
2018-02-14T02:40:12.803Z,62.10
2018-02-14T02:42:40.314Z,61.80
2018-02-14T02:45:07.860Z,61.50
2018-02-14T02:47:35.387Z,61.30
2018-02-14T02:50:03.666Z,61.50
2018-02-14T02:52:32.019Z,61.50
2018-02-14T02:54:59.561Z,61.40
2018-02-14T02:57:27.100Z,61.10
2018-02-14T02:59:54.604Z,61.30
2018-02-14T03:02:22.136Z,61.50
2018-02-14T03:04:49.683Z,61.40
2018-02-14T03:07:17.214Z,61.20
2018-02-14T03:09:44.746Z,61.30
2018-02-14T03:12:13.025Z,61.70
2018-02-14T03:14:41.330Z,61.80
2018-02-14T03:17:08.851Z,61.80
2018-02-14T03:19:37.160Z,61.70
2018-02-14T03:22:04.663Z,61.50
2018-02-14T03:24:32.174Z,61.80
2018-02-14T03:26:59.707Z,61.80
2018-02-14T03:29:27.990Z,62.00
2018-02-14T03:31:56.292Z,61.90
2018-02-14T03:34:23.855Z,61.90
2018-02-14T03:36:51.380Z,61.90
2018-02-14T03:39:19.646Z,62.20
2018-02-14T03:41:47.942Z,62.40
2018-02-14T03:44:15.448Z,62.20
2018-02-14T03:46:42.999Z,62.70
2018-02-14T03:49:10.536Z,63.00
2018-02-14T03:51:38.049Z,62.70
2018-02-14T03:54:05.575Z,62.60
2018-02-14T03:56:33.096Z,62.40
2018-02-14T03:59:00.643Z,62.30
2018-02-14T04:01:28.156Z,61.90
2018-02-14T04:03:55.696Z,62.10
2018-02-14T04:06:23.212Z,62.10
2018-02-14T04:08:50.778Z,62.30
2018-02-14T04:11:18.378Z,62.40
2018-02-14T04:13:45.895Z,62.50
2018-02-14T04:16:13.468Z,62.70
2018-02-14T04:18:40.973Z,62.80
2018-02-14T04:21:08.513Z,62.80
2018-02-14T04:23:36.033Z,62.50
2018-02-14T04:26:03.550Z,62.50
2018-02-14T04:28:31.068Z,62.30
2018-02-14T04:30:58.598Z,62.50
2018-02-14T04:33:26.099Z,62.50
2018-02-14T04:35:53.627Z,62.50
2018-02-14T04:38:21.144Z,63.10
2018-02-14T04:40:49.491Z,63.40
2018-02-14T04:43:17.015Z,63.30
2018-02-14T04:45:44.540Z,63.20
2018-02-14T04:48:12.089Z,63.10
2018-02-14T04:50:39.595Z,63.20
2018-02-14T04:53:07.121Z,63.20
2018-02-14T04:55:35.392Z,64.00
2018-02-14T04:58:03.732Z,64.00
2018-02-14T05:00:31.257Z,64.00
2018-02-14T05:02:58.795Z,64.00
2018-02-14T05:05:27.066Z,64.10
2018-02-14T05:07:55.358Z,64.20
2018-02-14T05:10:22.878Z,64.20
2018-02-14T05:12:50.398Z,64.20
2018-02-14T05:15:17.952Z,64.40
2018-02-14T05:17:45.456Z,63.70
2018-02-14T05:20:13.025Z,63.70
2018-02-14T05:22:40.534Z,63.70
2018-02-14T05:25:08.064Z,63.60
2018-02-14T05:27:35.581Z,63.90
2018-02-14T05:30:03.111Z,64.10
2018-02-14T05:32:30.649Z,64.60
2018-02-14T05:34:58.151Z,65.10
2018-02-14T05:37:25.714Z,66.00
2018-02-14T05:39:53.240Z,66.90
2018-02-14T05:42:20.772Z,67.40
2018-02-14T05:44:48.276Z,67.40
2018-02-14T05:47:15.840Z,67.00
2018-02-14T05:49:44.160Z,65.80
2018-02-14T05:52:11.675Z,65.80
2018-02-14T05:54:39.983Z,65.20
2018-02-14T05:57:08.255Z,64.90
2018-02-14T05:59:36.571Z,65.00
2018-02-14T06:02:04.077Z,65.00
2018-02-14T06:04:31.576Z,65.60
2018-02-14T06:06:59.121Z,65.90
2018-02-14T06:09:26.626Z,66.40
2018-02-14T06:11:54.162Z,66.40
2018-02-14T06:14:21.693Z,66.90
2018-02-14T06:16:49.220Z,67.20
2018-02-14T06:19:16.735Z,66.90
2018-02-14T06:21:44.257Z,66.70
2018-02-14T06:24:12.577Z,66.20
2018-02-14T06:26:40.086Z,66.20
2018-02-14T06:29:08.380Z,66.50
2018-02-14T06:31:35.896Z,66.50
2018-02-14T06:34:03.424Z,67.70
2018-02-14T06:36:30.931Z,67.00
2018-02-14T06:38:59.224Z,67.70
2018-02-14T06:41:26.751Z,67.70
2018-02-14T06:43:54.273Z,66.80
2018-02-14T06:46:21.821Z,66.30
2018-02-14T06:48:49.339Z,66.00
2018-02-14T06:51:17.660Z,65.60
2018-02-14T06:53:45.169Z,65.60
2018-02-14T06:56:13.448Z,65.90
2018-02-14T06:58:41.740Z,66.50
2018-02-14T07:01:09.266Z,66.40
2018-02-14T07:03:37.592Z,66.50
2018-02-14T07:06:05.102Z,66.50
2018-02-14T07:08:33.423Z,66.40
2018-02-14T07:11:00.944Z,66.30
2018-02-14T07:13:29.246Z,66.90
2018-02-14T07:15:56.757Z,66.90
2018-02-14T07:18:24.292Z,67.10
2018-02-14T07:20:51.889Z,67.00
2018-02-14T07:23:25.927Z,66.90
2018-02-14T07:25:53.470Z,66.80
2018-02-14T07:28:21.735Z,67.10
2018-02-14T07:30:50.080Z,67.00
2018-02-14T07:33:17.579Z,67.00
2018-02-14T07:35:45.896Z,67.20
2018-02-14T07:38:13.425Z,67.20
2018-02-14T07:40:40.994Z,67.30
2018-02-14T07:43:08.529Z,67.30
2018-02-14T07:45:36.794Z,66.90
2018-02-14T07:48:05.112Z,66.70
2018-02-14T07:50:32.625Z,66.60
2018-02-14T07:53:00.170Z,67.50
2018-02-14T07:55:27.726Z,66.80
2018-02-14T07:57:55.256Z,66.60
2018-02-14T08:00:22.803Z,66.80
2018-02-14T08:02:50.347Z,66.80
2018-02-14T08:05:17.905Z,66.70
2018-02-14T08:07:45.446Z,66.70
2018-02-14T08:10:13.753Z,66.20
2018-02-14T08:12:41.288Z,66.10
2018-02-14T08:15:08.808Z,66.40
2018-02-14T08:17:36.354Z,66.00
2018-02-14T08:20:03.889Z,65.40
2018-02-14T08:22:32.029Z,65.20
2018-02-14T08:24:59.538Z,65.60
2018-02-14T08:27:27.088Z,65.60
2018-02-14T08:29:54.603Z,65.00
2018-02-14T08:32:22.163Z,65.40
2018-02-14T08:34:49.678Z,64.40
2018-02-14T08:37:17.248Z,64.00
2018-02-14T08:39:44.752Z,63.60
2018-02-14T08:42:12.274Z,63.20
2018-02-14T08:44:40.564Z,63.50
2018-02-14T08:47:08.827Z,62.90
2018-02-14T08:49:36.363Z,62.80
2018-02-14T08:52:03.886Z,63.10
2018-02-14T08:54:31.411Z,61.80
2018-02-14T08:56:59.679Z,60.70
2018-02-14T08:59:27.988Z,60.70
2018-02-14T09:01:55.491Z,60.70
2018-02-14T09:04:22.993Z,60.40
2018-02-14T09:06:50.530Z,59.80
2018-02-14T09:09:18.819Z,58.90
2018-02-14T09:11:47.112Z,58.50
2018-02-14T09:14:14.619Z,58.40
2018-02-14T09:16:42.161Z,58.30
2018-02-14T09:19:09.663Z,57.50
2018-02-14T09:21:37.196Z,58.20
2018-02-14T09:24:04.692Z,57.50
2018-02-14T09:26:32.265Z,57.70
2018-02-14T09:28:59.790Z,57.50
2018-02-14T09:31:28.496Z,57.90
2018-02-14T09:33:55.992Z,57.90
2018-02-14T09:36:23.503Z,57.60
2018-02-14T09:38:51.027Z,56.90
2018-02-14T09:41:18.531Z,56.40
2018-02-14T09:43:46.055Z,55.90
2018-02-14T09:46:13.566Z,56.20
2018-02-14T09:48:41.125Z,56.50
2018-02-14T09:51:08.660Z,56.30
2018-02-14T09:53:36.212Z,56.10
2018-02-14T09:56:03.705Z,56.00
2018-02-14T09:58:31.199Z,56.10
2018-02-14T10:00:59.499Z,54.20
2018-02-14T10:03:27.020Z,54.10
2018-02-14T10:05:56.044Z,54.40
2018-02-14T10:08:23.551Z,54.30
2018-02-14T10:10:51.073Z,53.30
2018-02-14T10:13:18.572Z,53.40
2018-02-14T10:15:46.132Z,53.30
2018-02-14T10:18:13.675Z,53.40
2018-02-14T10:20:41.183Z,53.30
2018-02-14T10:23:09.485Z,53.40
2018-02-14T10:25:36.993Z,53.40
2018-02-14T10:28:04.531Z,52.10
2018-02-14T10:30:32.041Z,52.10
2018-02-14T10:32:59.570Z,51.90
2018-02-14T10:35:27.123Z,51.50
2018-02-14T10:37:54.670Z,51.90
2018-02-14T10:40:22.180Z,50.90
2018-02-14T10:42:49.720Z,50.40
2018-02-14T10:45:18.019Z,50.20
2018-02-14T10:47:45.593Z,50.10
2018-02-14T10:50:13.141Z,49.80
2018-02-14T10:52:40.643Z,49.80
2018-02-14T10:55:08.148Z,49.10
2018-02-14T10:57:35.700Z,49.60
2018-02-14T11:00:03.212Z,49.50
2018-02-14T11:02:37.952Z,48.40
2018-02-14T11:08:07.939Z,47.80
2018-02-14T11:10:35.445Z,47.80
2018-02-14T11:13:03.747Z,48.50
2018-02-14T11:15:31.259Z,47.80
2018-02-14T11:17:58.804Z,46.90
2018-02-14T11:20:26.300Z,46.90
2018-02-14T11:22:53.824Z,47.20
2018-02-14T11:25:21.340Z,46.40
2018-02-14T11:27:48.858Z,45.30
2018-02-14T11:30:16.410Z,44.70
2018-02-14T11:32:43.952Z,44.90
2018-02-14T11:35:11.451Z,44.50
2018-02-14T11:37:39.752Z,44.00
2018-02-14T11:40:07.264Z,44.00
2018-02-14T11:42:34.786Z,44.00
2018-02-14T11:45:02.312Z,44.10
2018-02-14T11:47:30.618Z,43.10
2018-02-14T11:49:58.120Z,43.10
2018-02-14T11:52:25.632Z,42.60
2018-02-14T11:54:53.169Z,41.30
2018-02-14T11:57:20.709Z,41.50
2018-02-14T11:59:48.995Z,41.50
2018-02-14T12:02:17.274Z,40.70
2018-02-14T12:04:44.802Z,40.70
2018-02-14T12:07:12.308Z,41.00
2018-02-14T12:09:39.858Z,40.40
2018-02-14T12:12:07.380Z,40.60
2018-02-14T12:14:35.719Z,39.50
2018-02-14T12:17:03.217Z,40.00
2018-02-14T12:19:31.540Z,39.50
2018-02-14T12:21:59.075Z,39.50
2018-02-14T12:24:26.595Z,39.50
2018-02-14T12:26:54.121Z,39.40
2018-02-14T12:29:21.632Z,38.00
2018-02-14T12:31:49.930Z,39.40
2018-02-14T12:34:17.451Z,39.40
2018-02-14T12:36:44.987Z,37.80
2018-02-14T12:39:12.499Z,38.10
2018-02-14T12:41:40.028Z,37.10
2018-02-14T12:44:08.301Z,38.10
2018-02-14T12:46:35.825Z,37.40
2018-02-14T12:49:03.353Z,36.80
2018-02-14T12:51:30.859Z,37.90
2018-02-14T12:53:58.392Z,37.50
2018-02-14T12:56:25.917Z,37.30
2018-02-14T12:58:53.457Z,36.40
2018-02-14T13:01:21.751Z,35.50
2018-02-14T13:03:49.291Z,35.50
2018-02-14T13:06:17.620Z,35.00
2018-02-14T13:08:45.159Z,34.90
2018-02-14T13:11:12.680Z,34.90
2018-02-14T13:13:40.960Z,33.60
2018-02-14T13:16:09.272Z,33.30
2018-02-14T13:18:36.812Z,33.20
2018-02-14T13:21:04.401Z,31.60
2018-02-14T13:23:31.926Z,31.00
2018-02-14T13:25:59.468Z,30.00
2018-02-14T13:28:27.770Z,30.50
2018-02-14T13:30:55.303Z,30.50
2018-02-14T13:33:23.589Z,28.60
2018-02-14T13:35:51.884Z,27.70
2018-02-14T13:38:19.456Z,28.20
2018-02-14T13:40:47.045Z,27.90
2018-02-14T13:43:14.565Z,27.50
2018-02-14T13:45:42.071Z,26.60
2018-02-14T13:48:09.623Z,26.30
2018-02-14T13:50:37.162Z,25.90
2018-02-14T13:53:04.719Z,26.30
2018-02-14T13:55:32.222Z,26.30
2018-02-14T13:58:00.519Z,25.30
2018-02-14T14:00:28.030Z,25.20
2018-02-14T14:02:56.305Z,24.90
2018-02-14T14:05:23.840Z,24.90
2018-02-14T14:07:51.336Z,25.20
2018-02-14T14:10:19.639Z,24.10
2018-02-14T14:12:47.160Z,24.40
2018-02-14T14:15:14.708Z,23.20
2018-02-14T14:17:42.224Z,23.30
2018-02-14T14:20:09.729Z,23.40
2018-02-14T14:22:37.305Z,22.80
2018-02-14T14:25:04.767Z,23.30
2018-02-14T14:27:33.064Z,25.40
2018-02-14T14:30:00.577Z,25.40
2018-02-14T14:32:28.120Z,25.80
2018-02-14T14:34:55.641Z,26.20
2018-02-14T14:37:23.180Z,26.50
2018-02-14T14:39:51.465Z,27.70
2018-02-14T14:42:19.801Z,27.90
2018-02-14T14:44:47.304Z,27.90
2018-02-14T14:47:14.821Z,27.90
2018-02-14T14:49:43.119Z,27.10
2018-02-14T14:52:11.407Z,28.20
2018-02-14T14:54:38.952Z,28.10
2018-02-14T14:57:07.221Z,27.20
2018-02-14T14:59:34.755Z,27.10
2018-02-14T15:02:02.260Z,27.80
2018-02-14T15:04:30.493Z,27.60
2018-02-14T15:06:58.000Z,28.20
2018-02-14T15:09:25.524Z,28.80
2018-02-14T15:11:53.787Z,29.00
2018-02-14T15:14:21.320Z,29.00
2018-02-14T15:16:48.862Z,29.60
2018-02-14T15:19:16.386Z,29.50
2018-02-14T15:21:44.675Z,30.00
2018-02-14T15:24:12.172Z,30.00
2018-02-14T15:26:39.720Z,30.60
2018-02-14T15:29:07.217Z,30.30
2018-02-14T15:31:35.489Z,31.30
2018-02-14T15:34:03.032Z,31.20
2018-02-14T15:36:30.533Z,31.90
2018-02-14T15:38:58.054Z,31.80
2018-02-14T15:41:25.578Z,31.80
2018-02-14T15:43:53.128Z,30.90
2018-02-14T15:46:20.645Z,30.70
2018-02-14T15:48:48.921Z,31.30
2018-02-14T15:51:17.244Z,31.70
2018-02-14T15:53:44.737Z,31.70
2018-02-14T15:56:12.280Z,32.10
2018-02-14T15:58:39.796Z,31.60
2018-02-14T16:01:07.326Z,32.10
2018-02-14T16:03:35.629Z,33.80
2018-02-14T16:06:03.156Z,33.70
2018-02-14T16:08:30.685Z,34.60
2018-02-14T16:10:58.204Z,34.80
2018-02-14T16:13:25.750Z,34.90
2018-02-14T16:15:53.293Z,35.20
2018-02-14T16:18:21.616Z,36.20
2018-02-14T16:20:49.126Z,36.10
2018-02-14T16:23:17.407Z,36.60
2018-02-14T16:25:45.710Z,36.70
2018-02-14T16:28:13.221Z,36.70
2018-02-14T16:30:40.791Z,37.10
2018-02-14T16:33:09.101Z,37.50
2018-02-14T16:35:36.640Z,37.40
2018-02-14T16:38:04.146Z,37.80
2018-02-14T16:40:31.692Z,38.00
2018-02-14T16:42:59.226Z,38.30
2018-02-14T16:45:26.763Z,38.50
2018-02-14T16:47:55.100Z,38.80
2018-02-14T16:50:22.611Z,38.70
2018-02-14T16:52:50.200Z,38.90
2018-02-14T16:55:17.707Z,39.50
2018-02-14T16:57:46.008Z,39.60
2018-02-14T17:00:13.549Z,39.60
2018-02-14T17:02:42.308Z,39.80
2018-02-14T17:05:09.820Z,39.80
2018-02-14T17:07:37.351Z,39.80
2018-02-14T17:10:05.628Z,40.50
2018-02-14T17:12:33.890Z,40.80
2018-02-14T17:15:01.445Z,40.80
2018-02-14T17:17:28.961Z,41.10
2018-02-14T17:19:56.508Z,41.50
2018-02-14T17:22:24.046Z,41.30
2018-02-14T17:24:51.576Z,41.40
2018-02-14T17:27:19.125Z,41.50
2018-02-14T17:29:47.019Z,41.80
2018-02-14T17:32:15.315Z,42.30
2018-02-14T17:34:42.846Z,42.30
2018-02-14T17:37:11.161Z,42.60
2018-02-14T17:39:38.680Z,42.60
2018-02-14T17:42:06.984Z,43.10
2018-02-14T17:44:34.496Z,43.10
2018-02-14T17:47:02.799Z,43.40
2018-02-14T17:49:31.080Z,43.50
2018-02-14T17:51:58.616Z,43.50
2018-02-14T17:54:26.913Z,43.50
2018-02-14T17:56:54.448Z,43.80
2018-02-14T17:59:22.016Z,43.20
2018-02-14T18:01:49.535Z,43.40
2018-02-14T18:04:17.074Z,43.20
2018-02-14T18:06:44.585Z,43.20
2018-02-14T18:09:12.944Z,43.20
2018-02-14T18:11:40.452Z,43.20
2018-02-14T18:14:07.996Z,43.10
2018-02-14T18:16:35.581Z,43.10
2018-02-14T18:19:03.074Z,42.90
2018-02-14T18:21:30.659Z,43.00
2018-02-14T18:23:58.948Z,43.20
2018-02-14T18:26:26.498Z,43.10
2018-02-14T18:28:54.778Z,43.30
2018-02-14T18:31:22.356Z,43.20
2018-02-14T18:33:49.859Z,43.20
2018-02-14T18:36:17.369Z,43.20
2018-02-14T18:38:44.916Z,44.40
2018-02-14T18:41:12.451Z,43.60
2018-02-14T18:43:40.761Z,43.80
2018-02-14T18:46:08.278Z,43.70
2018-02-14T18:48:35.825Z,43.80
2018-02-14T18:51:03.361Z,44.00
2018-02-14T18:53:30.893Z,44.00
2018-02-14T18:55:58.391Z,43.90
2018-02-14T18:58:25.935Z,43.90
2018-02-14T19:00:53.454Z,44.10
2018-02-14T19:03:20.948Z,44.10
2018-02-14T19:05:48.483Z,44.30
2018-02-14T19:08:16.028Z,44.60
2018-02-14T19:10:43.587Z,45.00
2018-02-14T19:13:11.115Z,45.30
2018-02-14T19:15:38.648Z,45.40
2018-02-14T19:18:06.214Z,45.60
2018-02-14T19:20:33.753Z,46.40
2018-02-14T19:23:01.327Z,46.00
2018-02-14T19:25:28.841Z,46.30
2018-02-14T19:27:56.441Z,46.50
2018-02-14T19:30:23.967Z,46.70
2018-02-14T19:32:51.492Z,47.00
2018-02-14T19:35:19.757Z,47.60
2018-02-14T19:37:47.317Z,47.60
2018-02-14T19:40:15.634Z,48.10
2018-02-14T19:42:43.213Z,48.10
2018-02-14T19:45:10.768Z,48.20
2018-02-14T19:47:38.300Z,48.40
2018-02-14T19:50:05.892Z,48.60
2018-02-14T19:52:33.433Z,48.70
2018-02-14T19:55:00.969Z,48.50
2018-02-14T19:57:28.520Z,48.90
2018-02-14T19:59:56.792Z,49.30
2018-02-14T20:02:25.089Z,49.40
2018-02-14T20:04:52.627Z,49.40
2018-02-14T20:07:20.899Z,49.20
2018-02-14T20:09:49.190Z,49.40
2018-02-14T20:12:16.752Z,49.30
2018-02-14T20:14:44.273Z,49.40
2018-02-14T20:17:11.841Z,49.50
2018-02-14T20:19:40.135Z,49.80
2018-02-14T20:22:07.644Z,49.80
2018-02-14T20:24:35.185Z,49.70
2018-02-14T20:27:02.722Z,49.90
2018-02-14T20:29:30.268Z,50.10
2018-02-14T20:31:57.799Z,50.30
2018-02-14T20:34:25.317Z,50.40
2018-02-14T20:36:52.886Z,50.70
2018-02-14T20:39:20.440Z,50.60
2018-02-14T20:41:49.635Z,50.40
2018-02-14T20:44:17.223Z,50.50
2018-02-14T20:46:44.742Z,50.40
2018-02-14T20:49:12.304Z,50.90
2018-02-14T20:51:39.859Z,50.70
2018-02-14T20:54:07.389Z,50.70
2018-02-14T20:56:34.959Z,50.70
2018-02-14T20:59:02.499Z,51.00
2018-02-14T21:01:30.067Z,51.00
2018-02-14T21:03:57.592Z,51.10
2018-02-14T21:06:25.129Z,51.10
2018-02-14T21:08:52.644Z,51.30
2018-02-14T21:11:20.193Z,51.40
2018-02-14T21:13:47.718Z,51.30
2018-02-14T21:16:15.303Z,51.10
2018-02-14T21:18:42.829Z,51.30
2018-02-14T21:21:10.340Z,51.30
2018-02-14T21:23:37.869Z,51.40
2018-02-14T21:26:06.152Z,52.00
2018-02-14T21:28:34.481Z,52.20
2018-02-14T21:31:02.046Z,52.30
2018-02-14T21:33:29.568Z,52.40
2018-02-14T21:35:57.100Z,52.50
2018-02-14T21:38:25.381Z,53.00
2018-02-14T21:40:53.683Z,53.70
2018-02-14T21:43:21.246Z,53.00
2018-02-14T21:45:48.753Z,53.30
2018-02-14T21:48:17.041Z,53.10
2018-02-14T21:50:45.354Z,53.80
2018-02-14T21:53:12.853Z,53.10
2018-02-14T21:55:40.409Z,53.20
2018-02-14T21:58:08.710Z,53.70
2018-02-14T22:00:37.008Z,53.70
2018-02-14T22:03:04.519Z,53.70
2018-02-14T22:05:32.055Z,54.00
2018-02-14T22:07:59.602Z,54.10
2018-02-14T22:10:27.145Z,54.30
2018-02-14T22:12:54.685Z,54.30
2018-02-14T22:15:22.965Z,54.60
2018-02-14T22:17:50.577Z,54.60
2018-02-14T22:20:18.107Z,54.40
2018-02-14T22:22:45.652Z,54.40
2018-02-14T22:25:13.506Z,54.60
2018-02-14T22:27:41.037Z,54.80
2018-02-14T22:30:08.547Z,54.90
2018-02-14T22:32:36.084Z,54.80
2018-02-14T22:35:03.599Z,54.40
2018-02-14T22:37:31.184Z,54.10
2018-02-14T22:39:58.699Z,54.30
2018-02-14T22:42:26.203Z,54.20
2018-02-14T22:44:54.511Z,54.30
2018-02-14T22:47:22.017Z,54.30
2018-02-14T22:49:50.346Z,54.10
2018-02-14T22:52:17.860Z,53.90
2018-02-14T22:54:46.170Z,54.00
2018-02-14T22:57:13.688Z,54.00
2018-02-14T22:59:42.006Z,54.20
2018-02-14T23:02:09.534Z,54.30
2018-02-14T23:04:37.803Z,54.60
2018-02-14T23:07:06.107Z,54.70
2018-02-14T23:09:33.627Z,54.60
2018-02-14T23:12:01.148Z,54.60
2018-02-14T23:14:29.034Z,55.20
2018-02-14T23:16:56.578Z,54.60
2018-02-14T23:19:24.093Z,54.70
2018-02-14T23:21:51.626Z,54.90
2018-02-14T23:24:19.894Z,55.60
2018-02-14T23:26:48.201Z,55.10
2018-02-14T23:29:15.721Z,54.90
2018-02-14T23:31:44.013Z,55.10
2018-02-14T23:34:12.327Z,55.20
2018-02-14T23:36:39.833Z,55.20
2018-02-14T23:39:07.353Z,55.30
2018-02-14T23:41:34.858Z,55.30
2018-02-14T23:44:02.396Z,55.30
2018-02-14T23:46:30.011Z,55.30
2018-02-14T23:48:57.567Z,55.40
2018-02-14T23:51:25.078Z,55.60
2018-02-14T23:53:52.599Z,55.50
2018-02-14T23:56:20.160Z,55.60
2018-02-14T23:58:47.672Z,55.80
